Clackmannan, United Kingdom
Current Conditions -  °F | °C
As of 8:20 PM on Friday 28 Nov 2014 (Local Time) from EGPH Reporting Station
Overcast Overcast  
Wind Chill: 46°   Ceiling: 1400
Heat Index: 48°   Visibility: 6mi
Dew Point: 48°   Wind: 6mph
Humidity: 100%   Direction: 60°ENE
Pressure: 29.85"   Gusts: NA
Location:  56.11°N, 3.75°W
Report Text: EGPH 282020Z 06005KT 9999 SCT009 BKN014 OVC028 09/09 Q1011
Loading
Personal Weather Stations






























Interactive Weather Map New forecast layout! Learn more

10-Day Weather Forecast

Advertisements
Track Severe Weather on mobile